sensor_id;sensor_type;location;lat;lon;timestamp;pressure;altitude;pressure_sealevel;temperature;humidity
42105;BME280;68365;51.472;5.712;2023-04-25T00:02:21;100874.34;;;15.64;100.00
42105;BME280;68365;51.472;5.712;2023-04-25T00:04:47;100876.56;;;15.61;100.00
42105;BME280;68365;51.472;5.712;2023-04-25T00:07:14;100877.53;;;15.60;100.00
42105;BME280;68365;51.472;5.712;2023-04-25T00:09:41;100867.09;;;15.60;100.00
42105;BME280;68365;51.472;5.712;2023-04-25T00:12:07;100868.50;;;15.62;100.00
42105;BME280;68365;51.472;5.712;2023-04-25T00:14:34;100877.19;;;15.63;100.00
42105;BME280;68365;51.472;5.712;2023-04-25T00:17:01;100875.56;;;15.62;100.00
42105;BME280;68365;51.472;5.712;2023-04-25T00:19:28;100880.78;;;15.62;100.00
42105;BME280;68365;51.472;5.712;2023-04-25T00:21:55;100880.34;;;15.58;100.00
42105;BME280;68365;51.472;5.712;2023-04-25T00:24:21;100891.44;;;15.60;100.00
42105;BME280;68365;51.472;5.712;2023-04-25T00:26:47;100886.41;;;15.59;100.00
42105;BME280;68365;51.472;5.712;2023-04-25T00:29:13;100889.03;;;15.59;100.00
42105;BME280;68365;51.472;5.712;2023-04-25T00:31:38;100890.00;;;15.58;100.00
42105;BME280;68365;51.472;5.712;2023-04-25T00:34:06;100881.78;;;15.61;100.00
42105;BME280;68365;51.472;5.712;2023-04-25T00:36:31;100886.41;;;15.59;100.00
42105;BME280;68365;51.472;5.712;2023-04-25T00:38:57;100893.25;;;15.60;100.00
42105;BME280;68365;51.472;5.712;2023-04-25T00:41:25;100884.78;;;15.58;100.00
42105;BME280;68365;51.472;5.712;2023-04-25T00:43:53;100886.78;;;15.56;100.00
42105;BME280;68365;51.472;5.712;2023-04-25T00:46:19;100882.34;;;15.56;100.00
42105;BME280;68365;51.472;5.712;2023-04-25T00:48:45;100874.50;;;15.56;100.00
42105;BME280;68365;51.472;5.712;2023-04-25T00:51:16;100880.56;;;15.57;100.00
42105;BME280;68365;51.472;5.712;2023-04-25T00:53:45;100874.88;;;15.53;100.00
42105;BME280;68365;51.472;5.712;2023-04-25T00:56:11;100882.72;;;15.53;100.00
42105;BME280;68365;51.472;5.712;2023-04-25T00:58:37;100879.09;;;15.54;100.00
42105;BME280;68365;51.472;5.712;2023-04-25T01:01:03;100878.69;;;15.51;100.00
42105;BME280;68365;51.472;5.712;2023-04-25T01:03:33;100880.13;;;15.53;100.00
42105;BME280;68365;51.472;5.712;2023-04-25T01:06:02;100877.84;;;15.50;100.00
42105;BME280;68365;51.472;5.712;2023-04-25T01:08:28;100888.59;;;15.55;100.00
42105;BME280;68365;51.472;5.712;2023-04-25T01:10:54;100883.72;;;15.52;100.00
42105;BME280;68365;51.472;5.712;2023-04-25T01:13:20;100885.16;;;15.55;100.00
42105;BME280;68365;51.472;5.712;2023-04-25T01:15:46;100888.94;;;15.52;100.00
42105;BME280;68365;51.472;5.712;2023-04-25T01:18:12;100885.97;;;15.55;100.00
42105;BME280;68365;51.472;5.712;2023-04-25T01:20:38;100883.09;;;15.50;100.00
42105;BME280;68365;51.472;5.712;2023-04-25T01:23:07;100884.09;;;15.49;100.00
42105;BME280;68365;51.472;5.712;2023-04-25T01:25:33;100886.72;;;15.49;100.00
42105;BME280;68365;51.472;5.712;2023-04-25T01:28:00;100884.72;;;15.51;100.00
42105;BME280;68365;51.472;5.712;2023-04-25T01:30:27;100887.28;;;15.44;100.00
42105;BME280;68365;51.472;5.712;2023-04-25T01:32:55;100886.91;;;15.47;100.00
42105;BME280;68365;51.472;5.712;2023-04-25T01:35:22;100890.31;;;15.48;100.00
42105;BME280;68365;51.472;5.712;2023-04-25T01:37:50;100888.91;;;15.45;100.00
42105;BME280;68365;51.472;5.712;2023-04-25T01:40:18;100885.47;;;15.45;100.00
42105;BME280;68365;51.472;5.712;2023-04-25T01:42:46;100887.06;;;15.46;100.00
42105;BME280;68365;51.472;5.712;2023-04-25T01:45:12;100888.91;;;15.45;100.00
42105;BME280;68365;51.472;5.712;2023-04-25T01:47:39;100886.44;;;15.44;100.00
42105;BME280;68365;51.472;5.712;2023-04-25T01:50:07;100896.56;;;15.47;100.00
42105;BME280;68365;51.472;5.712;2023-04-25T01:52:33;100892.94;;;15.48;100.00
42105;BME280;68365;51.472;5.712;2023-04-25T01:55:01;100897.38;;;15.47;100.00
42105;BME280;68365;51.472;5.712;2023-04-25T01:57:27;100904.75;;;15.44;100.00
42105;BME280;68365;51.472;5.712;2023-04-25T02:00:01;100910.00;;;15.44;100.00
42105;BME280;68365;51.472;5.712;2023-04-25T02:02:27;100918.47;;;15.46;100.00
42105;BME280;68365;51.472;5.712;2023-04-25T02:04:53;100912.25;;;15.47;100.00
42105;BME280;68365;51.472;5.712;2023-04-25T02:07:20;100915.06;;;15.45;100.00
42105;BME280;68365;51.472;5.712;2023-04-25T02:09:46;100903.34;;;15.41;100.00
42105;BME280;68365;51.472;5.712;2023-04-25T02:12:12;100911.63;;;15.45;100.00
42105;BME280;68365;51.472;5.712;2023-04-25T02:14:37;100916.25;;;15.43;100.00
42105;BME280;68365;51.472;5.712;2023-04-25T02:17:03;100912.00;;;15.42;100.00
42105;BME280;68365;51.472;5.712;2023-04-25T02:19:29;100919.84;;;15.42;100.00
42105;BME280;68365;51.472;5.712;2023-04-25T02:21:55;100912.81;;;15.42;100.00
42105;BME280;68365;51.472;5.712;2023-04-25T02:24:22;100920.06;;;15.40;100.00
42105;BME280;68365;51.472;5.712;2023-04-25T02:26:48;100921.66;;;15.41;100.00
42105;BME280;68365;51.472;5.712;2023-04-25T02:29:15;100927.28;;;15.38;100.00
42105;BME280;68365;51.472;5.712;2023-04-25T02:31:42;100927.44;;;15.37;100.00
42105;BME280;68365;51.472;5.712;2023-04-25T02:34:07;100920.22;;;15.39;100.00
42105;BME280;68365;51.472;5.712;2023-04-25T02:36:33;100917.78;;;15.37;100.00
42105;BME280;68365;51.472;5.712;2023-04-25T02:39:01;100921.41;;;15.36;100.00
42105;BME280;68365;51.472;5.712;2023-04-25T02:41:27;100933.13;;;15.40;100.00
42105;BME280;68365;51.472;5.712;2023-04-25T02:43:52;100922.84;;;15.39;100.00
42105;BME280;68365;51.472;5.712;2023-04-25T02:46:18;100929.88;;;15.38;100.00
42105;BME280;68365;51.472;5.712;2023-04-25T02:48:44;100930.06;;;15.37;100.00
42105;BME280;68365;51.472;5.712;2023-04-25T02:51:10;100927.63;;;15.35;100.00
42105;BME280;68365;51.472;5.712;2023-04-25T02:53:36;100916.81;;;15.38;100.00
42105;BME280;68365;51.472;5.712;2023-04-25T02:56:02;100919.78;;;15.35;100.00
42105;BME280;68365;51.472;5.712;2023-04-25T02:58:27;100917.16;;;15.35;100.00
42105;BME280;68365;51.472;5.712;2023-04-25T03:00:53;100920.78;;;15.34;100.00
42105;BME280;68365;51.472;5.712;2023-04-25T03:03:20;100919.16;;;15.33;100.00
42105;BME280;68365;51.472;5.712;2023-04-25T03:05:52;100922.56;;;15.34;100.00
42105;BME280;68365;51.472;5.712;2023-04-25T03:08:18;100914.09;;;15.32;100.00
42105;BME280;68365;51.472;5.712;2023-04-25T03:10:45;100917.16;;;15.35;100.00
42105;BME280;68365;51.472;5.712;2023-04-25T03:13:12;100917.72;;;15.31;100.00
42105;BME280;68365;51.472;5.712;2023-04-25T03:15:39;100923.41;;;15.34;100.00
42105;BME280;68365;51.472;5.712;2023-04-25T03:18:04;100921.53;;;15.28;100.00
42105;BME280;68365;51.472;5.712;2023-04-25T03:20:30;100929.78;;;15.32;100.00
42105;BME280;68365;51.472;5.712;2023-04-25T03:22:56;100929.38;;;15.28;100.00
42105;BME280;68365;51.472;5.712;2023-04-25T03:25:22;100937.00;;;15.29;100.00
42105;BME280;68365;51.472;5.712;2023-04-25T03:27:48;100933.59;;;15.29;100.00
42105;BME280;68365;51.472;5.712;2023-04-25T03:30:13;100933.78;;;15.27;100.00
42105;BME280;68365;51.472;5.712;2023-04-25T03:32:39;100929.00;;;15.31;100.00
42105;BME280;68365;51.472;5.712;2023-04-25T03:35:05;100934.41;;;15.29;100.00
42105;BME280;68365;51.472;5.712;2023-04-25T03:37:31;100934.41;;;15.29;100.00
42105;BME280;68365;51.472;5.712;2023-04-25T03:39:57;100933.16;;;15.25;100.00
42105;BME280;68365;51.472;5.712;2023-04-25T03:42:23;100932.97;;;15.27;100.00
42105;BME280;68365;51.472;5.712;2023-04-25T03:44:50;100934.59;;;15.28;100.00
42105;BME280;68365;51.472;5.712;2023-04-25T03:47:16;100943.25;;;15.28;100.00
42105;BME280;68365;51.472;5.712;2023-04-25T03:49:42;100951.09;;;15.28;100.00
42105;BME280;68365;51.472;5.712;2023-04-25T03:52:08;100944.88;;;15.29;100.00
42105;BME280;68365;51.472;5.712;2023-04-25T03:54:33;100947.88;;;15.26;100.00
42105;BME280;68365;51.472;5.712;2023-04-25T03:57:00;100946.03;;;15.27;100.00
42105;BME280;68365;51.472;5.712;2023-04-25T03:59:25;100945.41;;;15.25;100.00
42105;BME280;68365;51.472;5.712;2023-04-25T04:01:52;100938.75;;;15.22;100.00
42105;BME280;68365;51.472;5.712;2023-04-25T04:04:18;100945.25;;;15.26;100.00
42105;BME280;68365;51.472;5.712;2023-04-25T04:06:44;100944.44;;;15.26;100.00
42105;BME280;68365;51.472;5.712;2023-04-25T04:09:10;100939.75;;;15.21;100.00
42105;BME280;68365;51.472;5.712;2023-04-25T04:11:38;100945.59;;;15.23;100.00
42105;BME280;68365;51.472;5.712;2023-04-25T04:14:08;100950.81;;;15.23;100.00
42105;BME280;68365;51.472;5.712;2023-04-25T04:16:33;100953.66;;;15.22;100.00
42105;BME280;68365;51.472;5.712;2023-04-25T04:18:59;100948.84;;;15.25;100.00
42105;BME280;68365;51.472;5.712;2023-04-25T04:21:25;100953.09;;;15.26;100.00
42105;BME280;68365;51.472;5.712;2023-04-25T04:23:53;100955.09;;;15.24;100.00
42105;BME280;68365;51.472;5.712;2023-04-25T04:26:20;100954.63;;;15.21;100.00
42105;BME280;68365;51.472;5.712;2023-04-25T04:28:52;100962.47;;;15.21;100.00
42105;BME280;68365;51.472;5.712;2023-04-25T04:31:20;100963.09;;;15.23;100.00
42105;BME280;68365;51.472;5.712;2023-04-25T04:33:47;100970.94;;;15.23;100.00
42105;BME280;68365;51.472;5.712;2023-04-25T04:36:13;100965.72;;;15.23;100.00
42105;BME280;68365;51.472;5.712;2023-04-25T04:38:40;100968.97;;;15.25;100.00
42105;BME280;68365;51.472;5.712;2023-04-25T04:41:08;100971.75;;;15.23;100.00
42105;BME280;68365;51.472;5.712;2023-04-25T04:43:33;100980.59;;;15.22;100.00
42105;BME280;68365;51.472;5.712;2023-04-25T04:46:03;100980.78;;;15.21;100.00
42105;BME280;68365;51.472;5.712;2023-04-25T04:48:34;100977.38;;;15.20;100.00
42105;BME280;68365;51.472;5.712;2023-04-25T04:51:00;100976.56;;;15.20;100.00
42105;BME280;68365;51.472;5.712;2023-04-25T04:53:27;100968.88;;;15.18;100.00
42105;BME280;68365;51.472;5.712;2023-04-25T04:55:53;100978.53;;;15.18;100.00
42105;BME280;68365;51.472;5.712;2023-04-25T04:58:18;100998.47;;;15.19;100.00
42105;BME280;68365;51.472;5.712;2023-04-25T05:00:45;101001.25;;;15.17;100.00
42105;BME280;68365;51.472;5.712;2023-04-25T05:03:11;101011.53;;;15.19;100.00
42105;BME280;68365;51.472;5.712;2023-04-25T05:05:37;101007.72;;;15.21;100.00
42105;BME280;68365;51.472;5.712;2023-04-25T05:08:06;101014.78;;;15.21;100.00
42105;BME280;68365;51.472;5.712;2023-04-25T05:10:31;101013.97;;;15.20;100.00
42105;BME280;68365;51.472;5.712;2023-04-25T05:12:57;101006.75;;;15.22;100.00
42105;BME280;68365;51.472;5.712;2023-04-25T05:15:23;101019.38;;;15.19;100.00
42105;BME280;68365;51.472;5.712;2023-04-25T05:17:49;101015.78;;;15.20;100.00
42105;BME280;68365;51.472;5.712;2023-04-25T05:20:14;101030.13;;;15.24;100.00
42105;BME280;68365;51.472;5.712;2023-04-25T05:22:40;101033.53;;;15.24;100.00
42105;BME280;68365;51.472;5.712;2023-04-25T05:25:08;101034.34;;;15.25;100.00
42105;BME280;68365;51.472;5.712;2023-04-25T05:27:35;101029.72;;;15.27;100.00
42105;BME280;68365;51.472;5.712;2023-04-25T05:30:00;101034.78;;;15.28;100.00
42105;BME280;68365;51.472;5.712;2023-04-25T05:32:26;101036.59;;;15.28;100.00
42105;BME280;68365;51.472;5.712;2023-04-25T05:34:52;101039.56;;;15.25;100.00
42105;BME280;68365;51.472;5.712;2023-04-25T05:37:18;101046.44;;;15.26;100.00
42105;BME280;68365;51.472;5.712;2023-04-25T05:39:44;101045.25;;;15.28;100.00
42105;BME280;68365;51.472;5.712;2023-04-25T05:42:09;101044.44;;;15.28;100.00
42105;BME280;68365;51.472;5.712;2023-04-25T05:44:35;101046.06;;;15.29;100.00
42105;BME280;68365;51.472;5.712;2023-04-25T05:47:01;101046.06;;;15.29;100.00
42105;BME280;68365;51.472;5.712;2023-04-25T05:49:27;101057.78;;;15.33;100.00
42105;BME280;68365;51.472;5.712;2023-04-25T05:51:53;101057.94;;;15.32;100.00
42105;BME280;68365;51.472;5.712;2023-04-25T05:54:18;101051.13;;;15.31;100.00
42105;BME280;68365;51.472;5.712;2023-04-25T05:56:44;101054.53;;;15.31;100.00
42105;BME280;68365;51.472;5.712;2023-04-25T05:59:10;101058.78;;;15.32;100.00
42105;BME280;68365;51.472;5.712;2023-04-25T06:01:36;101062.19;;;15.33;100.00
42105;BME280;68365;51.472;5.712;2023-04-25T06:04:02;101068.25;;;15.33;100.00
42105;BME280;68365;51.472;5.712;2023-04-25T06:06:28;101062.56;;;15.29;100.00
42105;BME280;68365;51.472;5.712;2023-04-25T06:08:54;101076.09;;;15.33;100.00
42105;BME280;68365;51.472;5.712;2023-04-25T06:11:20;101078.69;;;15.33;100.00
42105;BME280;68365;51.472;5.712;2023-04-25T06:13:46;101078.06;;;15.31;100.00
42105;BME280;68365;51.472;5.712;2023-04-25T06:16:12;101085.13;;;15.31;100.00
42105;BME280;68365;51.472;5.712;2023-04-25T06:18:38;101084.56;;;15.35;100.00
42105;BME280;68365;51.472;5.712;2023-04-25T06:21:04;101076.25;;;15.32;100.00
42105;BME280;68365;51.472;5.712;2023-04-25T06:23:30;101084.09;;;15.32;100.00
42105;BME280;68365;51.472;5.712;2023-04-25T06:25:55;101083.13;;;15.33;100.00
42105;BME280;68365;51.472;5.712;2023-04-25T06:28:21;101089.78;;;15.35;100.00
42105;BME280;68365;51.472;5.712;2023-04-25T06:30:47;101081.50;;;15.32;100.00
42105;BME280;68365;51.472;5.712;2023-04-25T06:33:13;101085.38;;;15.36;100.00
42105;BME280;68365;51.472;5.712;2023-04-25T06:35:39;101083.66;;;15.43;100.00
42105;BME280;68365;51.472;5.712;2023-04-25T06:38:05;101074.63;;;15.45;100.00
42105;BME280;68365;51.472;5.712;2023-04-25T06:40:31;101091.41;;;15.51;100.00
42105;BME280;68365;51.472;5.712;2023-04-25T06:42:56;101090.22;;;15.54;100.00
42105;BME280;68365;51.472;5.712;2023-04-25T06:45:22;101094.09;;;15.58;100.00
42105;BME280;68365;51.472;5.712;2023-04-25T06:47:48;101081.19;;;15.56;100.00
42105;BME280;68365;51.472;5.712;2023-04-25T06:50:14;101097.97;;;15.62;100.00
42105;BME280;68365;51.472;5.712;2023-04-25T06:52:39;101097.97;;;15.62;100.00
42105;BME280;68365;51.472;5.712;2023-04-25T06:55:06;101108.59;;;15.60;100.00
42105;BME280;68365;51.472;5.712;2023-04-25T06:57:31;101116.03;;;15.57;100.00
42105;BME280;68365;51.472;5.712;2023-04-25T06:59:57;101107.09;;;15.51;100.00
42105;BME280;68365;51.472;5.712;2023-04-25T07:02:23;101118.19;;;15.53;100.00
42105;BME280;68365;51.472;5.712;2023-04-25T07:04:49;101109.44;;;15.61;100.00
42105;BME280;68365;51.472;5.712;2023-04-25T07:07:14;101117.19;;;15.69;100.00
42105;BME280;68365;51.472;5.712;2023-04-25T07:09:40;101116.50;;;15.75;100.00
42105;BME280;68365;51.472;5.712;2023-04-25T07:12:06;101115.38;;;15.69;100.00
42105;BME280;68365;51.472;5.712;2023-04-25T07:14:32;101125.16;;;15.76;100.00
42105;BME280;68365;51.472;5.712;2023-04-25T07:16:58;101120.53;;;15.78;100.00
42105;BME280;68365;51.472;5.712;2023-04-25T07:19:23;101122.69;;;15.74;100.00
42105;BME280;68365;51.472;5.712;2023-04-25T07:21:52;101125.16;;;15.76;100.00
42105;BME280;68365;51.472;5.712;2023-04-25T07:24:18;101124.34;;;15.75;100.00
42105;BME280;68365;51.472;5.712;2023-04-25T07:26:44;101122.34;;;15.77;100.00
42105;BME280;68365;51.472;5.712;2023-04-25T07:29:10;101122.53;;;15.76;100.00
42105;BME280;68365;51.472;5.712;2023-04-25T07:31:36;101132.19;;;15.75;100.00
42105;BME280;68365;51.472;5.712;2023-04-25T07:34:02;101140.28;;;15.80;100.00
42105;BME280;68365;51.472;5.712;2023-04-25T07:36:28;101132.44;;;15.80;100.00
42105;BME280;68365;51.472;5.712;2023-04-25T07:38:53;101140.75;;;15.84;100.00
42105;BME280;68365;51.472;5.712;2023-04-25T07:41:19;101141.38;;;15.86;100.00
42105;BME280;68365;51.472;5.712;2023-04-25T07:43:45;101142.09;;;15.80;100.00
42105;BME280;68365;51.472;5.712;2023-04-25T07:46:11;101145.97;;;15.84;100.00
42105;BME280;68365;51.472;5.712;2023-04-25T07:48:36;101143.81;;;15.87;100.00
42105;BME280;68365;51.472;5.712;2023-04-25T07:51:02;101147.06;;;15.89;100.00
42105;BME280;68365;51.472;5.712;2023-04-25T07:53:30;101146.94;;;15.98;100.00
42105;BME280;68365;51.472;5.712;2023-04-25T07:55:56;101164.72;;;16.02;100.00
42105;BME280;68365;51.472;5.712;2023-04-25T07:58:21;101168.41;;;16.08;100.00
42105;BME280;68365;51.472;5.712;2023-04-25T08:00:48;101164.34;;;16.05;100.00
42105;BME280;68365;51.472;5.712;2023-04-25T08:03:14;101167.16;;;16.04;100.00
42105;BME280;68365;51.472;5.712;2023-04-25T08:05:40;101176.44;;;16.06;100.00
42105;BME280;68365;51.472;5.712;2023-04-25T08:08:05;101174.56;;;16.00;100.00
42105;BME280;68365;51.472;5.712;2023-04-25T08:10:32;101188.63;;;15.99;100.00
42105;BME280;68365;51.472;5.712;2023-04-25T08:12:59;101183.50;;;15.91;100.00
42105;BME280;68365;51.472;5.712;2023-04-25T08:15:25;101187.31;;;15.88;100.00
42105;BME280;68365;51.472;5.712;2023-04-25T08:17:51;101181.72;;;15.92;100.00
42105;BME280;68365;51.472;5.712;2023-04-25T08:20:17;101198.22;;;15.92;100.00
42105;BME280;68365;51.472;5.712;2023-04-25T08:22:43;101198.41;;;15.91;100.00
42105;BME280;68365;51.472;5.712;2023-04-25T08:25:09;101196.88;;;15.96;100.00
42105;BME280;68365;51.472;5.712;2023-04-25T08:27:35;101209.78;;;15.98;100.00
42105;BME280;68365;51.472;5.712;2023-04-25T08:30:03;101206.09;;;15.92;100.00
42105;BME280;68365;51.472;5.712;2023-04-25T08:32:29;101209.16;;;15.96;100.00
42105;BME280;68365;51.472;5.712;2023-04-25T08:34:55;101209.34;;;15.94;100.00
42105;BME280;68365;51.472;5.712;2023-04-25T08:37:21;101213.31;;;15.90;100.00
42105;BME280;68365;51.472;5.712;2023-04-25T08:39:47;101209.44;;;15.86;100.00
42105;BME280;68365;51.472;5.712;2023-04-25T08:42:15;101225.13;;;15.86;100.00
42105;BME280;68365;51.472;5.712;2023-04-25T08:44:41;101226.94;;;15.85;100.00
42105;BME280;68365;51.472;5.712;2023-04-25T08:47:07;101221.91;;;15.84;100.00
42105;BME280;68365;51.472;5.712;2023-04-25T08:49:33;101220.72;;;15.86;100.00
42105;BME280;68365;51.472;5.712;2023-04-25T08:52:04;101225.13;;;15.86;100.00
42105;BME280;68365;51.472;5.712;2023-04-25T08:54:32;101228.56;;;15.86;100.00
42105;BME280;68365;51.472;5.712;2023-04-25T08:57:02;101238.88;;;15.88;100.00
42105;BME280;68365;51.472;5.712;2023-04-25T08:59:30;101242.28;;;15.88;100.00
42105;BME280;68365;51.472;5.712;2023-04-25T09:01:57;101242.66;;;15.85;100.00
42105;BME280;68365;51.472;5.712;2023-04-25T09:04:23;101248.88;;;15.84;100.00
42105;BME280;68365;51.472;5.712;2023-04-25T09:06:49;101242.06;;;15.60;100.00
42105;BME280;68365;51.472;5.712;2023-04-25T09:09:14;101257.69;;;15.68;100.00
42105;BME280;68365;51.472;5.712;2023-04-25T09:11:41;101256.53;;;15.71;100.00
42105;BME280;68365;51.472;5.712;2023-04-25T09:14:18;101272.69;;;15.75;100.00
42105;BME280;68365;51.472;5.712;2023-04-25T09:21:55;101282.28;;;15.82;100.00
42105;BME280;68365;51.472;5.712;2023-04-25T09:24:43;101289.50;;;15.42;100.00
42105;BME280;68365;51.472;5.712;2023-04-25T09:27:17;101288.31;;;14.84;89.75
42105;BME280;68365;51.472;5.712;2023-04-25T09:29:43;101277.63;;;14.71;86.58
42105;BME280;68365;51.472;5.712;2023-04-25T09:32:21;101276.69;;;14.55;78.18
42105;BME280;68365;51.472;5.712;2023-04-25T09:34:50;101283.41;;;14.49;74.05
42105;BME280;68365;51.472;5.712;2023-04-25T09:37:29;101274.94;;;14.47;72.00
42105;BME280;68365;51.472;5.712;2023-04-25T09:40:00;101279.38;;;14.78;74.58
42105;BME280;68365;51.472;5.712;2023-04-25T09:42:31;101278.56;;;15.01;90.36
42105;BME280;68365;51.472;5.712;2023-04-25T09:44:58;101271.59;;;15.16;100.00
42105;BME280;68365;51.472;5.712;2023-04-25T09:47:26;101290.94;;;15.30;100.00
42105;BME280;68365;51.472;5.712;2023-04-25T09:49:53;101296.53;;;15.42;100.00
42105;BME280;68365;51.472;5.712;2023-04-25T09:52:21;101297.81;;;15.46;100.00
42105;BME280;68365;51.472;5.712;2023-04-25T09:54:49;101298.00;;;15.44;100.00
42105;BME280;68365;51.472;5.712;2023-04-25T09:57:18;101302.22;;;15.45;100.00
42105;BME280;68365;51.472;5.712;2023-04-25T09:59:47;101307.78;;;15.27;92.13
42105;BME280;68365;51.472;5.712;2023-04-25T10:02:19;101321.22;;;15.01;79.48
42105;BME280;68365;51.472;5.712;2023-04-25T10:04:51;101334.09;;;15.03;81.78
42105;BME280;68365;51.472;5.712;2023-04-25T10:07:19;101340.22;;;15.18;100.00
42105;BME280;68365;51.472;5.712;2023-04-25T10:09:48;101341.72;;;15.36;100.00
42105;BME280;68365;51.472;5.712;2023-04-25T10:12:17;101345.81;;;15.53;100.00
42105;BME280;68365;51.472;5.712;2023-04-25T10:14:44;101350.00;;;15.62;100.00
42105;BME280;68365;51.472;5.712;2023-04-25T10:17:11;101348.47;;;15.68;100.00
42105;BME280;68365;51.472;5.712;2023-04-25T10:19:37;101345.69;;;15.69;100.00
42105;BME280;68365;51.472;5.712;2023-04-25T10:22:29;101343.59;;;15.65;100.00
42105;BME280;68365;51.472;5.712;2023-04-25T10:24:57;101337.53;;;15.64;100.00
42105;BME280;68365;51.472;5.712;2023-04-25T10:27:23;101336.72;;;15.64;100.00
42105;BME280;68365;51.472;5.712;2023-04-25T10:30:10;101332.31;;;15.64;100.00
42105;BME280;68365;51.472;5.712;2023-04-25T10:32:42;101330.63;;;15.72;100.00
42105;BME280;68365;51.472;5.712;2023-04-25T10:35:31;101340.41;;;15.78;100.00
42105;BME280;68365;51.472;5.712;2023-04-25T10:38:10;101339.06;;;15.82;100.00
42105;BME280;68365;51.472;5.712;2023-04-25T10:40:36;101337.97;;;15.91;100.00
42105;BME280;68365;51.472;5.712;2023-04-25T10:43:38;101337.00;;;15.92;100.00
42105;BME280;68365;51.472;5.712;2023-04-25T10:46:27;101341.41;;;15.92;100.00
42105;BME280;68365;51.472;5.712;2023-04-25T10:48:58;101338.16;;;15.89;100.00
42105;BME280;68365;51.472;5.712;2023-04-25T10:51:34;101328.84;;;15.87;100.00
42105;BME280;68365;51.472;5.712;2023-04-25T10:54:07;101319.13;;;15.96;100.00
42105;BME280;68365;51.472;5.712;2023-04-25T10:56:37;101320.19;;;16.01;100.00
42105;BME280;68365;51.472;5.712;2023-04-25T10:59:13;101324.28;;;16.04;100.00
42105;BME280;68365;51.472;5.712;2023-04-25T11:01:41;101323.09;;;16.06;100.00
42105;BME280;68365;51.472;5.712;2023-04-25T11:04:33;101319.28;;;16.09;100.00
42105;BME280;68365;51.472;5.712;2023-04-25T11:07:37;101318.94;;;16.12;100.00
42105;BME280;68365;51.472;5.712;2023-04-25T11:10:04;101320.72;;;16.12;100.00
42105;BME280;68365;51.472;5.712;2023-04-25T11:12:32;101313.72;;;16.12;100.00
42105;BME280;68365;51.472;5.712;2023-04-25T11:15:08;101304.66;;;16.15;100.00
42105;BME280;68365;51.472;5.712;2023-04-25T11:17:34;101308.53;;;16.19;100.00
42105;BME280;68365;51.472;5.712;2023-04-25T11:20:01;101308.53;;;16.19;100.00
42105;BME280;68365;51.472;5.712;2023-04-25T11:22:28;101321.91;;;16.24;100.00
42105;BME280;68365;51.472;5.712;2023-04-25T11:24:54;101331.94;;;16.20;100.00
42105;BME280;68365;51.472;5.712;2023-04-25T11:27:21;101326.31;;;16.23;100.00
42105;BME280;68365;51.472;5.712;2023-04-25T11:29:46;101347.28;;;16.23;100.00
42105;BME280;68365;51.472;5.712;2023-04-25T11:32:17;101360.84;;;16.27;100.00
42105;BME280;68365;51.472;5.712;2023-04-25T11:34:44;101365.78;;;16.22;100.00
42105;BME280;68365;51.472;5.712;2023-04-25T11:37:10;101371.03;;;16.22;100.00
42105;BME280;68365;51.472;5.712;2023-04-25T11:39:38;101376.81;;;16.17;100.00
42105;BME280;68365;51.472;5.712;2023-04-25T11:42:04;101383.50;;;16.20;100.00
42105;BME280;68365;51.472;5.712;2023-04-25T11:44:31;101385.47;;;16.18;100.00
42105;BME280;68365;51.472;5.712;2023-04-25T11:46:57;101386.66;;;16.15;100.00
42105;BME280;68365;51.472;5.712;2023-04-25T11:49:23;101385.84;;;16.15;100.00
42105;BME280;68365;51.472;5.712;2023-04-25T11:51:50;101387.66;;;16.14;100.00
42105;BME280;68365;51.472;5.712;2023-04-25T11:54:16;101375.94;;;16.10;100.00
42105;BME280;68365;51.472;5.712;2023-04-25T11:56:46;101384.22;;;16.14;100.00
42105;BME280;68365;51.472;5.712;2023-04-25T11:59:12;101377.72;;;16.09;100.00
42105;BME280;68365;51.472;5.712;2023-04-25T12:01:40;101383.56;;;15.97;100.00
42105;BME280;68365;51.472;5.712;2023-04-25T12:04:18;101384.69;;;16.17;100.00
42105;BME280;68365;51.472;5.712;2023-04-25T12:06:46;101379.34;;;16.11;100.00
42105;BME280;68365;51.472;5.712;2023-04-25T12:09:27;101383.88;;;16.17;100.00
42105;BME280;68365;51.472;5.712;2023-04-25T12:11:55;101376.09;;;16.23;100.00
42105;BME280;68365;51.472;5.712;2023-04-25T12:14:27;101378.88;;;16.22;100.00
42105;BME280;68365;51.472;5.712;2023-04-25T12:16:59;101379.34;;;16.25;100.00
42105;BME280;68365;51.472;5.712;2023-04-25T12:19:26;101379.44;;;16.32;100.00
42105;BME280;68365;51.472;5.712;2023-04-25T12:21:57;101372.41;;;16.33;100.00
42105;BME280;68365;51.472;5.712;2023-04-25T12:24:25;101385.31;;;16.34;100.00
42105;BME280;68365;51.472;5.712;2023-04-25T12:27:00;101376.00;;;16.32;100.00
42105;BME280;68365;51.472;5.712;2023-04-25T12:29:32;101369.69;;;16.26;100.00
42105;BME280;68365;51.472;5.712;2023-04-25T12:31:59;101368.31;;;16.30;100.00
42105;BME280;68365;51.472;5.712;2023-04-25T12:34:27;101370.50;;;16.26;100.00
42105;BME280;68365;51.472;5.712;2023-04-25T12:36:53;101386.75;;;16.22;100.00
42105;BME280;68365;51.472;5.712;2023-04-25T12:39:23;101373.84;;;16.20;100.00
42105;BME280;68365;51.472;5.712;2023-04-25T12:41:53;101377.63;;;16.18;100.00
42105;BME280;68365;51.472;5.712;2023-04-25T12:44:20;101376.00;;;16.17;100.00
42105;BME280;68365;51.472;5.712;2023-04-25T12:46:47;101368.78;;;16.19;100.00
42105;BME280;68365;51.472;5.712;2023-04-25T12:49:13;101380.06;;;16.19;100.00